Historique des mesures à Cassis (13260), France
Quotidien Résumé Juin 5, 2021 Unités:  Métrique    US   Métrique/US
Quotidien Hebdomadaire Mensuel Annuel
  Maximum: Minimum: Moyenne:
Température: 25.9 °C 18.9 °C 22.3 °C
Point de rosée: 17.1 °C 13 °C 14.9 °C
Humidité: 81% 45% 64%
Vitesse du vent: 29.9km/h 0km/h 14.2km/h
Rafales: 40km/h - -
Vent- - WNW
Pression: 1010.3 hPa 1007.4 hPa -
Précipitations: 0.0 mm    
Historical Graphs
 
 
Mesures pour : Juin 5, 2021
Heure Temperature Point de rosée Pression Vent Vitesse du vent Rafales Humidité Pluie (par heure)
00:11 20.1 °C 16.8 °C 1010.3 hPa West 8.6 km/h 14.4 km/h 81% 0.0 mm
01:11 19.9 °C 16.2 °C 1010.2 hPa Calm   17.6 km/h 79% 0.0 mm
02:11 20.1 °C 15.8 °C 1009.6 hPa NW 15.5 km/h 32.4 km/h 76% 0.0 mm
04:11 19.6 °C 14.6 °C 1009.2 hPa NW 16.2 km/h 27.7 km/h 73% 0.0 mm
05:11 19.6 °C 14.2 °C 1008.5 hPa NW 19.1 km/h 33.1 km/h 71% 0.0 mm
06:11 18.9 °C 14.1 °C 1008.9 hPa West 25.9 km/h 28.8 km/h 74% 0.0 mm
07:11 19.3 °C 13.9 °C 1009.0 hPa NW 20.5 km/h 34.2 km/h 71% 0.0 mm
08:11 21.7 °C 14.3 °C 1009.4 hPa NW 24.5 km/h 25.9 km/h 63% 0.0 mm
09:11 21.5 °C 14.4 °C 1009.6 hPa West 22.7 km/h 25.2 km/h 64% 0.0 mm
10:11 20.9 °C 14.3 °C 1009.7 hPa West 27.7 km/h 35.6 km/h 66% 0.0 mm
11:11 23.6 °C 15.1 °C 1009.5 hPa West 29.9 km/h 34.9 km/h 59% 0.0 mm
12:11 23.7 °C 14.9 °C 1009.8 hPa WNW 8.3 km/h 34.2 km/h 58% 0.0 mm
13:11 23.9 °C 14.9 °C 1009.6 hPa West 4.7 km/h 30.2 km/h 57% 0.0 mm
14:11 24.5 °C 15.1 °C 1009.0 hPa West 11.2 km/h 31.7 km/h 56% 0.0 mm
15:11 24.4 °C 14.8 °C 1009.2 hPa WSW 14 km/h 22 km/h 55% 0.0 mm
16:11 24.7 °C 14.5 °C 1008.5 hPa West 13.7 km/h 40 km/h 53% 0.0 mm
17:11 25.7 °C 14.5 °C 1008.0 hPa WSW 6.1 km/h 26.3 km/h 50% 0.0 mm
18:11 25.9 °C 13 °C 1008.0 hPa NW 11.9 km/h 25.2 km/h 45% 0.0 mm
19:11 25.4 °C 13.6 °C 1007.4 hPa West 11.5 km/h 31 km/h 48% 0.0 mm
20:11 24.3 °C 14.4 °C 1007.5 hPa WNW 9 km/h 15.5 km/h 54% 0.0 mm
21:11 22.8 °C 15.4 °C 1007.9 hPa WNW 10.1 km/h 20.9 km/h 63% 0.0 mm
22:11 22.1 °C 16.6 °C 1008.5 hPa West 8.3 km/h 19.4 km/h 71% 0.0 mm
23:11 21.3 °C 17.1 °C 1008.7 hPa NW 8.3 km/h 13 km/h 77% 0.0 mm
Observations météo à CASSIS
WU-History script by Weather Underground - 2 mb